Air Navigation Services of Czech Republic  
Last data update:  10.12.2019 12:40:28 UTC Česká verze
   METEO Page displayed:  10.12.2019 12:40:55 UTC  
help
METAR EDDB 101220Z 27008KT 9999 FEW018 06/02 Q1023 NOSIG=
METAR EDDC 101220Z 29009KT 230V320 9999 SCT017 04/01 Q1023 NOSIG=
METAR EDDE 101220Z 25013KT 9999 FEW016 04/M00 Q1024 NOSIG=
METAR EDDF 101220Z 19007KT 9999 FEW021 06/01 Q1027 NOSIG=
METAR EDDM 101220Z 26007KT 9999 FEW019 03/M02 Q1027 NOSIG=
METAR EDDN 101220Z 27009KT 9999 SCT020 04/M00 Q1027 NOSIG=
METAR EDDP 101220Z 25011KT 9999 FEW023 06/01 Q1024 NOSIG=
METAR EDDT 101220Z 27007KT 9999 FEW020 06/02 Q1023 NOSIG=
METAR EDQM 101220Z VRB06KT 9999 BKN040 02/M00 Q1024=
METAR EPBY 101230Z 31013KT 9999 FEW025 BKN030 04/M02 Q1018=
METAR EPGD 101230Z 31018KT 9999 FEW015 02/M01 Q1016=
METAR EPKK 101230Z 29012KT 270V330 9999 SCT030 SCT043 03/M01 Q1020=
METAR EPKT 101230Z 30013KT 9999 SCT039 BKN046 02/M04 Q1019=
METAR EPLL 101230Z 27015KT 9999 BKN018 03/M01 Q1018=
METAR EPPO 101230Z 32011KT 9999 FEW027 05/M02 Q1020=
METAR EPRZ 101230Z 30012KT 9999 BKN023 05/01 Q1017=
METAR EPWA 101230Z 27007KT 240V310 9999 BKN023 04/00 Q1016 NOSIG=
METAR EPWR 101230Z 31015KT 9999 SCT029 BKN033 04/M02 Q1022=
METAR LHBP 101230Z 33014KT CAVOK 07/03 Q1017 NOSIG=
METAR LHSM 101215Z AUTO 01016G27KT 9999 BKN039 07/M00 Q1020 NOSIG=
METAR LKBC 101230Z AUTO 27010KT 9999 FEW029 04/M02 Q1024=
METAR LKCV 101200Z 31016KT 9999 SCT030 05/M03 Q1023 NOSIG RMK BLU BLU=
METAR LKKB 101200Z 29011KT 9999 SCT041 05/M03 Q1023 NOSIG RMK BLU BLU=
METAR LKKU 101200Z 01013G22KT 9999 SCT036 06/M03 Q1021=
METAR LKKV 101230Z 27008KT 230V290 9999 SCT021 BKN040 02/M02 Q1023 RMK REG QNH 1020=
METAR LKLN 101230Z AUTO 27007KT 210V300 9999 SCT025 BKN058 05/M00 Q1025=
METAR LKMT 101230Z 35009KT 320V020 9999 FEW045 05/M04 Q1021 NOSIG RMK REG QNH 1020=
METAR LKNA 101200Z 32018KT 9999 SCT034 03/M06 Q1021 NOSIG RMK BLU BLU=
METAR LKPD 101200Z 30013KT 9999 SCT033 05/M04 Q1023 NOSIG RMK BLU BLU=
SPECI LKPJ 101227Z AUTO 31013G23KT CAVOK ///// Q////=
METAR LKPR 101230Z 29010KT 9999 SCT035 05/M03 Q1024 NOSIG RMK REG QNH 1020=
METAR LKTB 101230Z 31017KT 9999 FEW049 06/M05 Q1022 NOSIG RMK REG QNH 1020=
METAR LKVO 101200Z 30012KT 9999 SCT029 06/M01 Q1024=
METAR LOWI 101220Z 08008KT 9999 FEW015 BKN065 03/M01 Q1026 R08/29//95 NOSIG=
METAR LOWL 101220Z 27016KT 9999 FEW023 BKN060 04/01 Q1026 NOSIG=
METAR LOWS 101220Z 25006KT 220V290 9999 FEW026 BKN060 03/M01 Q1027 NOSIG=
METAR LOWW 101220Z 33017G28KT 9999 SCT040 07/M03 Q1022 NOSIG=
METAR LZIB 101230Z 32017KT 9999 FEW044 BKN046 07/M03 Q1022 NOSIG=
METAR LZKZ 101230Z 01013KT 9999 SCT028 SCT073 06/02 Q1016 NOSIG=
METAR LZMC 101200Z 33016G26KT 9999 BKN036 06/M03 Q1022=
METAR LZPP 101230Z 33018KT 9999 SCT034 06/M02 Q1021=
METAR LZSL 101230Z 35015KT 330V030 9999 SCT041 06/M02 Q1017=
METAR LZTT 101230Z 21006KT 160V240 9999 FEW006 SCT023 02/M00 Q1015 NOSIG=
METAR LZZI 101230Z 36007KT 330V040 9999 SCT046 04/M04 Q1021=